sensor_id;sensor_type;location;lat;lon;timestamp;pressure;altitude;pressure_sealevel;temperature;humidity
27864;BME280;15980;51.092;13.916;2023-04-10T00:03:12;99581.41;;;4.04;87.23
27864;BME280;15980;51.092;13.916;2023-04-10T00:13:13;99580.34;;;3.95;87.58
27864;BME280;15980;51.092;13.916;2023-04-10T00:23:13;99574.94;;;3.79;87.02
27864;BME280;15980;51.092;13.916;2023-04-10T00:33:14;99568.19;;;3.57;86.96
27864;BME280;15980;51.092;13.916;2023-04-10T00:43:14;99556.50;;;3.46;87.45
27864;BME280;15980;51.092;13.916;2023-04-10T00:53:15;99554.09;;;3.29;88.04
27864;BME280;15980;51.092;13.916;2023-04-10T01:03:18;99564.66;;;3.26;88.84
27864;BME280;15980;51.092;13.916;2023-04-10T01:13:20;99546.50;;;3.11;88.09
27864;BME280;15980;51.092;13.916;2023-04-10T01:23:53;99550.81;;;3.02;88.98
27864;BME280;15980;51.092;13.916;2023-04-10T01:34:04;99554.09;;;3.14;89.24
27864;BME280;15980;51.092;13.916;2023-04-10T01:44:07;99555.72;;;3.20;89.82
27864;BME280;15980;51.092;13.916;2023-04-10T01:54:08;99545.41;;;3.07;90.00
27864;BME280;15980;51.092;13.916;2023-04-10T02:04:09;99549.47;;;3.04;90.77
27864;BME280;15980;51.092;13.916;2023-04-10T02:14:10;99554.88;;;2.99;89.95
27864;BME280;15980;51.092;13.916;2023-04-10T02:24:15;99538.88;;;2.93;91.08
27864;BME280;15980;51.092;13.916;2023-04-10T02:34:16;99533.72;;;3.01;90.49
27864;BME280;15980;51.092;13.916;2023-04-10T02:44:16;99528.88;;;3.19;90.84
27864;BME280;15980;51.092;13.916;2023-04-10T02:54:16;99520.19;;;3.52;90.38
27864;BME280;15980;51.092;13.916;2023-04-10T03:04:16;99525.78;;;3.86;91.11
27864;BME280;15980;51.092;13.916;2023-04-10T03:14:17;99527.69;;;3.91;90.19
27864;BME280;15980;51.092;13.916;2023-04-10T03:24:17;99537.69;;;4.00;90.23
27864;BME280;15980;51.092;13.916;2023-04-10T03:34:17;99529.03;;;3.98;91.03
27864;BME280;15980;51.092;13.916;2023-04-10T03:44:18;99530.97;;;3.77;91.30
27864;BME280;15980;51.092;13.916;2023-04-10T03:54:18;99542.63;;;3.78;91.25
27864;BME280;15980;51.092;13.916;2023-04-10T04:04:18;99536.38;;;3.93;91.95
27864;BME280;15980;51.092;13.916;2023-04-10T04:14:18;99536.56;;;4.17;91.17
27864;BME280;15980;51.092;13.916;2023-04-10T04:24:19;99552.56;;;4.18;91.44
27864;BME280;15980;51.092;13.916;2023-04-10T04:34:19;99558.06;;;3.98;91.48
27864;BME280;15980;51.092;13.916;2023-04-10T04:44:19;99568.69;;;3.84;91.74
27864;BME280;15980;51.092;13.916;2023-04-10T04:54:20;99563.53;;;3.77;91.85
27864;BME280;15980;51.092;13.916;2023-04-10T05:04:20;99567.06;;;3.83;90.90
27864;BME280;15980;51.092;13.916;2023-04-10T05:14:20;99571.66;;;3.98;91.28
27864;BME280;15980;51.092;13.916;2023-04-10T05:24:20;99578.06;;;4.37;90.09
27864;BME280;15980;51.092;13.916;2023-04-10T05:34:21;99569.47;;;4.64;89.61
27864;BME280;15980;51.092;13.916;2023-04-10T05:44:21;99576.63;;;4.99;89.98
27864;BME280;15980;51.092;13.916;2023-04-10T05:54:21;99577.19;;;5.35;88.53
27864;BME280;15980;51.092;13.916;2023-04-10T06:04:22;99577.09;;;5.80;88.17
27864;BME280;15980;51.092;13.916;2023-04-10T06:14:24;99569.78;;;6.28;88.11
27864;BME280;15980;51.092;13.916;2023-04-10T06:24:24;99573.78;;;6.78;88.11
27864;BME280;15980;51.092;13.916;2023-04-10T06:34:24;99565.44;;;7.45;87.82
27864;BME280;15980;51.092;13.916;2023-04-10T06:44:25;99562.09;;;7.94;86.31
27864;BME280;15980;51.092;13.916;2023-04-10T06:54:25;99563.84;;;8.31;83.00
27864;BME280;15980;51.092;13.916;2023-04-10T07:04:25;99560.50;;;8.62;80.97
27864;BME280;15980;51.092;13.916;2023-04-10T07:14:25;99560.97;;;8.91;78.41
27864;BME280;15980;51.092;13.916;2023-04-10T07:24:26;99569.03;;;9.10;76.33
27864;BME280;15980;51.092;13.916;2023-04-10T07:34:26;99551.75;;;9.99;74.61
27864;BME280;15980;51.092;13.916;2023-04-10T07:44:26;99557.25;;;11.30;70.07
27864;BME280;15980;51.092;13.916;2023-04-10T07:54:27;99544.50;;;12.07;66.36
27864;BME280;15980;51.092;13.916;2023-04-10T08:04:30;99544.44;;;12.53;61.82
27864;BME280;15980;51.092;13.916;2023-04-10T08:14:30;99530.63;;;11.94;61.60
27864;BME280;15980;51.092;13.916;2023-04-10T08:24:30;99524.69;;;11.67;64.38
27864;BME280;15980;51.092;13.916;2023-04-10T08:34:31;99520.69;;;11.47;65.76
27864;BME280;15980;51.092;13.916;2023-04-10T08:44:31;99516.66;;;11.53;66.21
27864;BME280;15980;51.092;13.916;2023-04-10T08:54:33;99514.19;;;11.60;65.65
27864;BME280;15980;51.092;13.916;2023-04-10T09:04:35;99500.41;;;11.86;68.29
27864;BME280;15980;51.092;13.916;2023-04-10T09:14:36;99490.88;;;12.21;66.26
27864;BME280;15980;51.092;13.916;2023-04-10T09:24:40;99488.84;;;12.39;64.43
27864;BME280;15980;51.092;13.916;2023-04-10T09:34:54;99482.16;;;12.70;63.83
27864;BME280;15980;51.092;13.916;2023-04-10T09:44:55;99466.19;;;13.83;60.17
27864;BME280;15980;51.092;13.916;2023-04-10T09:54:57;99463.06;;;14.82;56.80
27864;BME280;15980;51.092;13.916;2023-04-10T10:04:57;99445.75;;;15.69;52.59
27864;BME280;15980;51.092;13.916;2023-04-10T10:15:13;99433.91;;;15.56;52.73
27864;BME280;15980;51.092;13.916;2023-04-10T10:25:17;99425.31;;;14.74;51.39
27864;BME280;15980;51.092;13.916;2023-04-10T10:35:18;99415.22;;;14.66;50.93
27864;BME280;15980;51.092;13.916;2023-04-10T10:45:25;99393.53;;;15.08;53.63
27864;BME280;15980;51.092;13.916;2023-04-10T10:55:29;99376.03;;;15.04;52.37
27864;BME280;15980;51.092;13.916;2023-04-10T11:05:52;99362.09;;;14.57;54.03
27864;BME280;15980;51.092;13.916;2023-04-10T11:15:55;99352.56;;;14.42;52.39
27864;BME280;15980;51.092;13.916;2023-04-10T11:25:55;99333.16;;;14.94;51.76
27864;BME280;15980;51.092;13.916;2023-04-10T11:35:56;99323.50;;;16.33;48.33
27864;BME280;15980;51.092;13.916;2023-04-10T11:46:04;99310.56;;;16.57;46.84
27864;BME280;15980;51.092;13.916;2023-04-10T11:56:05;99294.78;;;16.61;47.04
27864;BME280;15980;51.092;13.916;2023-04-10T12:06:07;99274.94;;;16.01;48.59
27864;BME280;15980;51.092;13.916;2023-04-10T12:16:08;99263.81;;;16.36;47.48
27864;BME280;15980;51.092;13.916;2023-04-10T12:26:16;99255.59;;;17.01;43.98
27864;BME280;15980;51.092;13.916;2023-04-10T12:36:21;99238.97;;;17.77;42.80
27864;BME280;15980;51.092;13.916;2023-04-10T12:46:26;99237.94;;;17.85;41.02
27864;BME280;15980;51.092;13.916;2023-04-10T12:56:39;99229.59;;;17.85;41.21
27864;BME280;15980;51.092;13.916;2023-04-10T13:06:43;99208.84;;;18.05;37.78
27864;BME280;15980;51.092;13.916;2023-04-10T13:16:43;99202.63;;;17.59;39.54
27864;BME280;15980;51.092;13.916;2023-04-10T13:26:43;99196.81;;;17.15;40.60
27864;BME280;15980;51.092;13.916;2023-04-10T13:36:43;99181.34;;;17.14;40.86
27864;BME280;15980;51.092;13.916;2023-04-10T13:46:44;99166.25;;;17.38;37.62
27864;BME280;15980;51.092;13.916;2023-04-10T13:56:44;99136.28;;;17.77;37.83
27864;BME280;15980;51.092;13.916;2023-04-10T14:06:44;99128.09;;;17.31;40.04
27864;BME280;15980;51.092;13.916;2023-04-10T14:16:45;99113.00;;;17.28;39.01
27864;BME280;15980;51.092;13.916;2023-04-10T14:26:45;99103.50;;;17.30;36.54
27864;BME280;15980;51.092;13.916;2023-04-10T14:36:45;99098.84;;;17.07;40.24
27864;BME280;15980;51.092;13.916;2023-04-10T14:46:45;99094.84;;;16.55;39.33
27864;BME280;15980;51.092;13.916;2023-04-10T14:56:47;99071.19;;;16.39;39.12
27864;BME280;15980;51.092;13.916;2023-04-10T15:06:47;99070.28;;;16.31;39.58
27864;BME280;15980;51.092;13.916;2023-04-10T15:16:47;99050.78;;;16.24;39.36
27864;BME280;15980;51.092;13.916;2023-04-10T15:26:48;99034.97;;;16.24;39.56
27864;BME280;15980;51.092;13.916;2023-04-10T15:36:48;99025.44;;;16.22;40.10
27864;BME280;15980;51.092;13.916;2023-04-10T15:46:49;99010.22;;;15.89;40.40
27864;BME280;15980;51.092;13.916;2023-04-10T16:06:59;98992.34;;;14.71;42.14
27864;BME280;15980;51.092;13.916;2023-04-10T16:17:00;98982.81;;;14.49;42.96
27864;BME280;15980;51.092;13.916;2023-04-10T16:27:00;98959.72;;;14.41;44.37
27864;BME280;15980;51.092;13.916;2023-04-10T16:37:00;98960.00;;;14.36;45.30
27864;BME280;15980;51.092;13.916;2023-04-10T16:47:00;98946.56;;;14.19;45.05
27864;BME280;15980;51.092;13.916;2023-04-10T16:57:02;98944.25;;;14.21;47.19
27864;BME280;15980;51.092;13.916;2023-04-10T17:07:02;98927.81;;;13.93;45.93
27864;BME280;15980;51.092;13.916;2023-04-10T17:17:02;98927.53;;;13.51;48.52
27864;BME280;15980;51.092;13.916;2023-04-10T17:27:03;98915.69;;;12.95;50.20
27864;BME280;15980;51.092;13.916;2023-04-10T17:37:03;98915.88;;;12.34;52.24
27864;BME280;15980;51.092;13.916;2023-04-10T17:47:04;98898.25;;;11.74;52.57
27864;BME280;15980;51.092;13.916;2023-04-10T17:57:04;98897.53;;;11.07;55.24
27864;BME280;15980;51.092;13.916;2023-04-10T18:07:04;98889.13;;;10.70;56.01
27864;BME280;15980;51.092;13.916;2023-04-10T18:17:05;98867.09;;;10.46;57.35
27864;BME280;15980;51.092;13.916;2023-04-10T18:27:05;98869.72;;;10.13;58.60
27864;BME280;15980;51.092;13.916;2023-04-10T18:37:05;98853.13;;;9.80;60.49
27864;BME280;15980;51.092;13.916;2023-04-10T18:47:05;98833.97;;;9.42;62.22
27864;BME280;15980;51.092;13.916;2023-04-10T18:57:06;98831.66;;;9.23;62.77
27864;BME280;15980;51.092;13.916;2023-04-10T19:07:06;98818.50;;;8.99;64.54
27864;BME280;15980;51.092;13.916;2023-04-10T19:17:06;98812.47;;;8.76;65.38
27864;BME280;15980;51.092;13.916;2023-04-10T19:27:07;98797.34;;;8.62;66.21
27864;BME280;15980;51.092;13.916;2023-04-10T19:37:07;98784.53;;;8.45;67.11
27864;BME280;15980;51.092;13.916;2023-04-10T19:47:07;98767.59;;;8.60;67.23
27864;BME280;15980;51.092;13.916;2023-04-10T19:57:07;98752.78;;;8.70;67.13
27864;BME280;15980;51.092;13.916;2023-04-10T20:07:08;98740.50;;;8.85;66.18
27864;BME280;15980;51.092;13.916;2023-04-10T20:17:08;98739.94;;;9.00;65.37
27864;BME280;15980;51.092;13.916;2023-04-10T20:27:08;98726.94;;;8.97;65.73
27864;BME280;15980;51.092;13.916;2023-04-10T20:37:09;98713.06;;;9.02;65.49
27864;BME280;15980;51.092;13.916;2023-04-10T20:47:09;98684.56;;;9.03;65.13
27864;BME280;15980;51.092;13.916;2023-04-10T20:57:10;98665.25;;;9.29;63.66
27864;BME280;15980;51.092;13.916;2023-04-10T21:07:10;98645.75;;;9.30;63.14
27864;BME280;15980;51.092;13.916;2023-04-10T21:17:10;98648.69;;;9.25;61.99
27864;BME280;15980;51.092;13.916;2023-04-10T21:27:11;98639.53;;;9.21;61.97
27864;BME280;15980;51.092;13.916;2023-04-10T21:37:11;98642.00;;;9.35;61.13
27864;BME280;15980;51.092;13.916;2023-04-10T21:47:11;98633.19;;;9.29;61.72
27864;BME280;15980;51.092;13.916;2023-04-10T21:57:12;98606.41;;;9.35;61.99
27864;BME280;15980;51.092;13.916;2023-04-10T22:07:12;98582.16;;;9.45;61.54
27864;BME280;15980;51.092;13.916;2023-04-10T22:17:12;98585.78;;;9.58;61.16
27864;BME280;15980;51.092;13.916;2023-04-10T22:27:12;98587.50;;;9.63;60.42
27864;BME280;15980;51.092;13.916;2023-04-10T22:37:13;98577.94;;;9.48;61.77
27864;BME280;15980;51.092;13.916;2023-04-10T22:47:13;98564.88;;;9.33;61.82
27864;BME280;15980;51.092;13.916;2023-04-10T22:57:13;98537.50;;;9.33;62.07
27864;BME280;15980;51.092;13.916;2023-04-10T23:07:14;98519.34;;;9.28;61.43
27864;BME280;15980;51.092;13.916;2023-04-10T23:17:14;98496.38;;;9.54;59.91
27864;BME280;15980;51.092;13.916;2023-04-10T23:27:15;98493.94;;;9.73;58.57
27864;BME280;15980;51.092;13.916;2023-04-10T23:37:15;98473.72;;;9.77;58.40
27864;BME280;15980;51.092;13.916;2023-04-10T23:47:15;98439.03;;;9.82;57.95
27864;BME280;15980;51.092;13.916;2023-04-10T23:57:15;98418.25;;;9.93;57.63
